sensor_id;sensor_type;location;lat;lon;timestamp;P1;durP1;ratioP1;P2;durP2;ratioP2
74963;SDS011;63521;51.900;4.748;2023-04-16T00:00:51;2.03;;;1.27;;
74963;SDS011;63521;51.900;4.748;2023-04-16T00:03:16;1.80;;;1.27;;
74963;SDS011;63521;51.900;4.748;2023-04-16T00:05:42;1.95;;;1.00;;
74963;SDS011;63521;51.900;4.748;2023-04-16T00:08:07;1.65;;;1.10;;
74963;SDS011;63521;51.900;4.748;2023-04-16T00:10:33;3.45;;;1.50;;
74963;SDS011;63521;51.900;4.748;2023-04-16T00:12:59;3.72;;;1.40;;
74963;SDS011;63521;51.900;4.748;2023-04-16T00:15:25;3.92;;;1.25;;
74963;SDS011;63521;51.900;4.748;2023-04-16T00:17:51;3.92;;;1.40;;
74963;SDS011;63521;51.900;4.748;2023-04-16T00:20:16;2.60;;;1.17;;
74963;SDS011;63521;51.900;4.748;2023-04-16T00:22:42;2.97;;;1.30;;
74963;SDS011;63521;51.900;4.748;2023-04-16T00:25:07;3.05;;;1.40;;
74963;SDS011;63521;51.900;4.748;2023-04-16T00:27:33;1.83;;;1.20;;
74963;SDS011;63521;51.900;4.748;2023-04-16T00:29:58;1.63;;;1.30;;
74963;SDS011;63521;51.900;4.748;2023-04-16T00:32:24;2.65;;;1.20;;
74963;SDS011;63521;51.900;4.748;2023-04-16T00:34:49;3.50;;;1.45;;
74963;SDS011;63521;51.900;4.748;2023-04-16T00:37:15;3.08;;;1.60;;
74963;SDS011;63521;51.900;4.748;2023-04-16T00:39:40;2.80;;;1.40;;
74963;SDS011;63521;51.900;4.748;2023-04-16T00:42:06;2.08;;;1.30;;
74963;SDS011;63521;51.900;4.748;2023-04-16T00:44:31;4.03;;;1.30;;
74963;SDS011;63521;51.900;4.748;2023-04-16T00:47:00;2.80;;;1.50;;
74963;SDS011;63521;51.900;4.748;2023-04-16T00:49:26;2.25;;;1.50;;
74963;SDS011;63521;51.900;4.748;2023-04-16T00:51:51;2.30;;;1.40;;
74963;SDS011;63521;51.900;4.748;2023-04-16T00:54:17;2.40;;;1.58;;
74963;SDS011;63521;51.900;4.748;2023-04-16T00:56:43;3.00;;;1.50;;
74963;SDS011;63521;51.900;4.748;2023-04-16T00:59:09;2.63;;;1.42;;
74963;SDS011;63521;51.900;4.748;2023-04-16T01:01:34;1.23;;;1.13;;
74963;SDS011;63521;51.900;4.748;2023-04-16T01:04:00;4.40;;;1.60;;
74963;SDS011;63521;51.900;4.748;2023-04-16T01:06:26;1.73;;;1.17;;
74963;SDS011;63521;51.900;4.748;2023-04-16T01:08:51;3.00;;;1.40;;
74963;SDS011;63521;51.900;4.748;2023-04-16T01:11:17;3.38;;;1.17;;
74963;SDS011;63521;51.900;4.748;2023-04-16T01:13:43;1.30;;;0.90;;
74963;SDS011;63521;51.900;4.748;2023-04-16T01:16:09;2.08;;;1.27;;
74963;SDS011;63521;51.900;4.748;2023-04-16T01:18:35;2.47;;;1.40;;
74963;SDS011;63521;51.900;4.748;2023-04-16T01:21:01;2.22;;;1.33;;
74963;SDS011;63521;51.900;4.748;2023-04-16T01:23:28;2.67;;;1.30;;
74963;SDS011;63521;51.900;4.748;2023-04-16T01:25:53;2.42;;;1.17;;
74963;SDS011;63521;51.900;4.748;2023-04-16T01:28:19;2.78;;;1.30;;
74963;SDS011;63521;51.900;4.748;2023-04-16T01:30:44;3.03;;;1.40;;
74963;SDS011;63521;51.900;4.748;2023-04-16T01:33:10;2.83;;;1.30;;
74963;SDS011;63521;51.900;4.748;2023-04-16T01:35:36;3.97;;;1.33;;
74963;SDS011;63521;51.900;4.748;2023-04-16T01:38:02;3.33;;;1.60;;
74963;SDS011;63521;51.900;4.748;2023-04-16T01:40:27;2.22;;;1.05;;
74963;SDS011;63521;51.900;4.748;2023-04-16T01:42:53;1.50;;;1.23;;
74963;SDS011;63521;51.900;4.748;2023-04-16T01:45:18;2.60;;;1.30;;
74963;SDS011;63521;51.900;4.748;2023-04-16T01:47:44;1.88;;;1.20;;
74963;SDS011;63521;51.900;4.748;2023-04-16T01:50:09;1.25;;;1.10;;
74963;SDS011;63521;51.900;4.748;2023-04-16T01:52:35;2.63;;;1.70;;
74963;SDS011;63521;51.900;4.748;2023-04-16T01:55:01;2.30;;;1.40;;
74963;SDS011;63521;51.900;4.748;2023-04-16T01:57:27;1.95;;;1.10;;
74963;SDS011;63521;51.900;4.748;2023-04-16T01:59:53;1.52;;;1.17;;
74963;SDS011;63521;51.900;4.748;2023-04-16T02:02:18;3.17;;;1.20;;
74963;SDS011;63521;51.900;4.748;2023-04-16T02:04:44;2.92;;;1.00;;
74963;SDS011;63521;51.900;4.748;2023-04-16T02:07:10;1.55;;;1.30;;
74963;SDS011;63521;51.900;4.748;2023-04-16T02:09:36;3.35;;;1.40;;
74963;SDS011;63521;51.900;4.748;2023-04-16T02:12:03;1.65;;;1.05;;
74963;SDS011;63521;51.900;4.748;2023-04-16T02:14:30;2.75;;;1.60;;
74963;SDS011;63521;51.900;4.748;2023-04-16T02:16:56;2.28;;;1.30;;
74963;SDS011;63521;51.900;4.748;2023-04-16T02:19:22;1.40;;;1.17;;
74963;SDS011;63521;51.900;4.748;2023-04-16T02:21:47;3.42;;;1.95;;
74963;SDS011;63521;51.900;4.748;2023-04-16T02:24:13;1.98;;;1.00;;
74963;SDS011;63521;51.900;4.748;2023-04-16T02:26:39;2.78;;;1.20;;
74963;SDS011;63521;51.900;4.748;2023-04-16T02:29:04;2.67;;;1.30;;
74963;SDS011;63521;51.900;4.748;2023-04-16T02:31:31;2.42;;;1.40;;
74963;SDS011;63521;51.900;4.748;2023-04-16T02:33:57;3.08;;;1.40;;
74963;SDS011;63521;51.900;4.748;2023-04-16T02:36:22;2.88;;;1.17;;
74963;SDS011;63521;51.900;4.748;2023-04-16T02:38:48;1.70;;;1.20;;
74963;SDS011;63521;51.900;4.748;2023-04-16T02:41:13;3.55;;;1.40;;
74963;SDS011;63521;51.900;4.748;2023-04-16T02:43:39;1.70;;;1.40;;
74963;SDS011;63521;51.900;4.748;2023-04-16T02:46:04;3.47;;;1.42;;
74963;SDS011;63521;51.900;4.748;2023-04-16T02:48:30;2.53;;;1.33;;
74963;SDS011;63521;51.900;4.748;2023-04-16T02:50:55;2.00;;;1.10;;
74963;SDS011;63521;51.900;4.748;2023-04-16T02:53:21;2.60;;;1.35;;
74963;SDS011;63521;51.900;4.748;2023-04-16T02:55:50;5.43;;;1.55;;
74963;SDS011;63521;51.900;4.748;2023-04-16T02:58:22;4.38;;;1.40;;
74963;SDS011;63521;51.900;4.748;2023-04-16T03:00:48;1.88;;;1.30;;
74963;SDS011;63521;51.900;4.748;2023-04-16T03:03:15;2.17;;;1.30;;
74963;SDS011;63521;51.900;4.748;2023-04-16T03:05:40;1.63;;;1.10;;
74963;SDS011;63521;51.900;4.748;2023-04-16T03:08:06;3.60;;;1.58;;
74963;SDS011;63521;51.900;4.748;2023-04-16T03:10:32;3.63;;;1.30;;
74963;SDS011;63521;51.900;4.748;2023-04-16T03:12:59;2.13;;;1.20;;
74963;SDS011;63521;51.900;4.748;2023-04-16T03:15:24;4.82;;;1.42;;
74963;SDS011;63521;51.900;4.748;2023-04-16T03:17:50;3.38;;;1.27;;
74963;SDS011;63521;51.900;4.748;2023-04-16T03:20:15;2.67;;;1.30;;
74963;SDS011;63521;51.900;4.748;2023-04-16T03:22:41;3.58;;;1.23;;
74963;SDS011;63521;51.900;4.748;2023-04-16T03:25:07;4.07;;;1.30;;
74963;SDS011;63521;51.900;4.748;2023-04-16T03:27:33;3.20;;;1.20;;
74963;SDS011;63521;51.900;4.748;2023-04-16T03:29:59;3.45;;;1.40;;
74963;SDS011;63521;51.900;4.748;2023-04-16T03:32:25;2.40;;;1.30;;
74963;SDS011;63521;51.900;4.748;2023-04-16T03:34:50;2.90;;;1.40;;
74963;SDS011;63521;51.900;4.748;2023-04-16T03:37:16;5.03;;;1.60;;
74963;SDS011;63521;51.900;4.748;2023-04-16T03:39:41;6.95;;;1.60;;
74963;SDS011;63521;51.900;4.748;2023-04-16T03:42:07;2.22;;;1.40;;
74963;SDS011;63521;51.900;4.748;2023-04-16T03:44:32;2.08;;;1.35;;
74963;SDS011;63521;51.900;4.748;2023-04-16T03:46:58;3.08;;;1.23;;
74963;SDS011;63521;51.900;4.748;2023-04-16T03:49:24;2.88;;;1.35;;
74963;SDS011;63521;51.900;4.748;2023-04-16T03:51:49;2.03;;;1.20;;
74963;SDS011;63521;51.900;4.748;2023-04-16T03:54:15;2.55;;;1.20;;
74963;SDS011;63521;51.900;4.748;2023-04-16T03:56:40;2.72;;;1.40;;
74963;SDS011;63521;51.900;4.748;2023-04-16T03:59:06;2.10;;;1.20;;
74963;SDS011;63521;51.900;4.748;2023-04-16T04:01:31;1.85;;;1.27;;
74963;SDS011;63521;51.900;4.748;2023-04-16T04:03:57;4.63;;;1.42;;
74963;SDS011;63521;51.900;4.748;2023-04-16T04:06:22;4.78;;;1.33;;
74963;SDS011;63521;51.900;4.748;2023-04-16T04:08:48;2.53;;;1.25;;
74963;SDS011;63521;51.900;4.748;2023-04-16T04:11:13;4.13;;;1.40;;
74963;SDS011;63521;51.900;4.748;2023-04-16T04:13:38;2.42;;;1.45;;
74963;SDS011;63521;51.900;4.748;2023-04-16T04:16:04;3.55;;;1.42;;
74963;SDS011;63521;51.900;4.748;2023-04-16T04:18:30;4.00;;;1.17;;
74963;SDS011;63521;51.900;4.748;2023-04-16T04:20:55;1.85;;;1.20;;
74963;SDS011;63521;51.900;4.748;2023-04-16T04:23:21;3.47;;;1.40;;
74963;SDS011;63521;51.900;4.748;2023-04-16T04:25:47;1.55;;;1.20;;
74963;SDS011;63521;51.900;4.748;2023-04-16T04:28:13;4.47;;;1.27;;
74963;SDS011;63521;51.900;4.748;2023-04-16T04:30:38;2.38;;;1.38;;
74963;SDS011;63521;51.900;4.748;2023-04-16T04:33:04;3.67;;;1.60;;
74963;SDS011;63521;51.900;4.748;2023-04-16T04:35:30;1.42;;;1.08;;
74963;SDS011;63521;51.900;4.748;2023-04-16T04:37:55;3.22;;;1.15;;
74963;SDS011;63521;51.900;4.748;2023-04-16T04:40:21;1.77;;;1.02;;
74963;SDS011;63521;51.900;4.748;2023-04-16T04:42:46;3.33;;;1.20;;
74963;SDS011;63521;51.900;4.748;2023-04-16T04:45:12;2.03;;;1.10;;
74963;SDS011;63521;51.900;4.748;2023-04-16T04:47:37;1.98;;;1.20;;
74963;SDS011;63521;51.900;4.748;2023-04-16T04:50:03;4.53;;;1.42;;
74963;SDS011;63521;51.900;4.748;2023-04-16T04:52:28;2.42;;;1.25;;
74963;SDS011;63521;51.900;4.748;2023-04-16T04:54:54;1.90;;;1.30;;
74963;SDS011;63521;51.900;4.748;2023-04-16T04:57:20;2.67;;;1.20;;
74963;SDS011;63521;51.900;4.748;2023-04-16T04:59:45;1.73;;;1.35;;
74963;SDS011;63521;51.900;4.748;2023-04-16T05:02:11;4.22;;;1.45;;
74963;SDS011;63521;51.900;4.748;2023-04-16T05:04:36;2.28;;;1.45;;
74963;SDS011;63521;51.900;4.748;2023-04-16T05:07:02;2.05;;;1.52;;
74963;SDS011;63521;51.900;4.748;2023-04-16T05:09:27;2.25;;;1.60;;
74963;SDS011;63521;51.900;4.748;2023-04-16T05:11:52;4.00;;;1.90;;
74963;SDS011;63521;51.900;4.748;2023-04-16T05:14:18;3.17;;;1.50;;
74963;SDS011;63521;51.900;4.748;2023-04-16T05:16:43;2.38;;;1.55;;
74963;SDS011;63521;51.900;4.748;2023-04-16T05:19:09;4.63;;;1.80;;
74963;SDS011;63521;51.900;4.748;2023-04-16T05:21:35;2.30;;;1.60;;
74963;SDS011;63521;51.900;4.748;2023-04-16T05:24:00;4.65;;;1.60;;
74963;SDS011;63521;51.900;4.748;2023-04-16T05:26:25;4.47;;;1.88;;
74963;SDS011;63521;51.900;4.748;2023-04-16T05:28:51;2.75;;;2.10;;
74963;SDS011;63521;51.900;4.748;2023-04-16T05:31:17;3.28;;;1.75;;
74963;SDS011;63521;51.900;4.748;2023-04-16T05:33:42;4.43;;;2.00;;
74963;SDS011;63521;51.900;4.748;2023-04-16T05:36:07;3.85;;;1.90;;
74963;SDS011;63521;51.900;4.748;2023-04-16T05:38:33;3.97;;;2.15;;
74963;SDS011;63521;51.900;4.748;2023-04-16T05:55:42;2.95;;;2.10;;
74963;SDS011;63521;51.900;4.748;2023-04-16T05:58:08;3.47;;;2.13;;
74963;SDS011;63521;51.900;4.748;2023-04-16T06:00:33;4.07;;;2.33;;
74963;SDS011;63521;51.900;4.748;2023-04-16T06:02:59;4.28;;;2.15;;
74963;SDS011;63521;51.900;4.748;2023-04-16T06:05:25;4.32;;;2.08;;
74963;SDS011;63521;51.900;4.748;2023-04-16T06:07:51;4.90;;;2.50;;
74963;SDS011;63521;51.900;4.748;2023-04-16T06:10:16;4.65;;;2.10;;
74963;SDS011;63521;51.900;4.748;2023-04-16T06:12:42;3.47;;;2.00;;
74963;SDS011;63521;51.900;4.748;2023-04-16T06:15:07;4.30;;;2.08;;
74963;SDS011;63521;51.900;4.748;2023-04-16T06:17:33;2.90;;;1.80;;
74963;SDS011;63521;51.900;4.748;2023-04-16T06:19:59;3.05;;;2.17;;
74963;SDS011;63521;51.900;4.748;2023-04-16T06:22:24;4.72;;;2.50;;
74963;SDS011;63521;51.900;4.748;2023-04-16T06:24:50;4.40;;;2.03;;
74963;SDS011;63521;51.900;4.748;2023-04-16T06:27:15;5.40;;;2.20;;
74963;SDS011;63521;51.900;4.748;2023-04-16T06:29:41;4.63;;;2.20;;
74963;SDS011;63521;51.900;4.748;2023-04-16T06:32:06;3.13;;;1.92;;
74963;SDS011;63521;51.900;4.748;2023-04-16T06:34:33;3.60;;;2.45;;
74963;SDS011;63521;51.900;4.748;2023-04-16T06:36:59;4.32;;;2.80;;
74963;SDS011;63521;51.900;4.748;2023-04-16T06:39:24;5.20;;;2.38;;
74963;SDS011;63521;51.900;4.748;2023-04-16T06:41:49;5.60;;;2.83;;
74963;SDS011;63521;51.900;4.748;2023-04-16T06:44:18;5.57;;;2.72;;
74963;SDS011;63521;51.900;4.748;2023-04-16T06:46:43;4.28;;;2.42;;
74963;SDS011;63521;51.900;4.748;2023-04-16T06:49:09;4.40;;;2.58;;
74963;SDS011;63521;51.900;4.748;2023-04-16T06:51:34;6.75;;;2.60;;
74963;SDS011;63521;51.900;4.748;2023-04-16T06:54:00;4.60;;;2.50;;
74963;SDS011;63521;51.900;4.748;2023-04-16T06:56:26;5.28;;;2.70;;
74963;SDS011;63521;51.900;4.748;2023-04-16T06:58:51;4.28;;;2.33;;
74963;SDS011;63521;51.900;4.748;2023-04-16T07:01:38;4.43;;;2.70;;
74963;SDS011;63521;51.900;4.748;2023-04-16T07:04:02;4.45;;;2.78;;
74963;SDS011;63521;51.900;4.748;2023-04-16T07:06:28;5.18;;;2.50;;
74963;SDS011;63521;51.900;4.748;2023-04-16T07:08:53;4.85;;;2.80;;
74963;SDS011;63521;51.900;4.748;2023-04-16T07:11:19;6.25;;;2.90;;
74963;SDS011;63521;51.900;4.748;2023-04-16T07:13:45;5.30;;;2.60;;
74963;SDS011;63521;51.900;4.748;2023-04-16T07:16:10;6.05;;;2.67;;
74963;SDS011;63521;51.900;4.748;2023-04-16T07:18:36;5.38;;;3.42;;
74963;SDS011;63521;51.900;4.748;2023-04-16T07:21:01;4.50;;;2.75;;
74963;SDS011;63521;51.900;4.748;2023-04-16T07:23:27;6.68;;;3.40;;
74963;SDS011;63521;51.900;4.748;2023-04-16T07:25:52;4.85;;;2.80;;
74963;SDS011;63521;51.900;4.748;2023-04-16T07:28:18;5.78;;;2.83;;
74963;SDS011;63521;51.900;4.748;2023-04-16T07:30:43;7.57;;;3.15;;
74963;SDS011;63521;51.900;4.748;2023-04-16T07:33:11;6.78;;;3.25;;
74963;SDS011;63521;51.900;4.748;2023-04-16T07:35:37;5.22;;;3.33;;
74963;SDS011;63521;51.900;4.748;2023-04-16T07:38:03;6.00;;;3.35;;
74963;SDS011;63521;51.900;4.748;2023-04-16T07:40:28;6.20;;;3.05;;
74963;SDS011;63521;51.900;4.748;2023-04-16T07:42:54;7.47;;;3.15;;
74963;SDS011;63521;51.900;4.748;2023-04-16T07:45:23;5.38;;;3.33;;
74963;SDS011;63521;51.900;4.748;2023-04-16T07:47:48;6.82;;;3.72;;
74963;SDS011;63521;51.900;4.748;2023-04-16T07:50:14;5.65;;;2.85;;
74963;SDS011;63521;51.900;4.748;2023-04-16T07:52:43;5.95;;;3.38;;
74963;SDS011;63521;51.900;4.748;2023-04-16T07:55:23;7.00;;;3.25;;
74963;SDS011;63521;51.900;4.748;2023-04-16T07:57:49;7.10;;;3.15;;
74963;SDS011;63521;51.900;4.748;2023-04-16T08:00:15;6.05;;;3.20;;
74963;SDS011;63521;51.900;4.748;2023-04-16T08:02:41;7.07;;;3.08;;
74963;SDS011;63521;51.900;4.748;2023-04-16T08:05:07;5.07;;;3.17;;
74963;SDS011;63521;51.900;4.748;2023-04-16T08:07:33;5.03;;;2.97;;
74963;SDS011;63521;51.900;4.748;2023-04-16T08:09:58;5.57;;;3.42;;
74963;SDS011;63521;51.900;4.748;2023-04-16T08:12:24;5.85;;;2.92;;
74963;SDS011;63521;51.900;4.748;2023-04-16T08:14:49;9.77;;;3.80;;
74963;SDS011;63521;51.900;4.748;2023-04-16T08:17:15;5.30;;;3.13;;
74963;SDS011;63521;51.900;4.748;2023-04-16T08:19:44;10.05;;;4.10;;
74963;SDS011;63521;51.900;4.748;2023-04-16T08:22:10;5.85;;;3.25;;
74963;SDS011;63521;51.900;4.748;2023-04-16T08:24:36;6.05;;;3.38;;
74963;SDS011;63521;51.900;4.748;2023-04-16T08:27:02;5.13;;;3.28;;
74963;SDS011;63521;51.900;4.748;2023-04-16T08:29:33;8.52;;;3.50;;
74963;SDS011;63521;51.900;4.748;2023-04-16T08:31:58;5.50;;;3.10;;
74963;SDS011;63521;51.900;4.748;2023-04-16T08:34:24;7.82;;;3.40;;
74963;SDS011;63521;51.900;4.748;2023-04-16T08:36:50;5.13;;;3.03;;
74963;SDS011;63521;51.900;4.748;2023-04-16T08:39:20;6.20;;;3.25;;
74963;SDS011;63521;51.900;4.748;2023-04-16T08:41:46;6.75;;;3.33;;
74963;SDS011;63521;51.900;4.748;2023-04-16T08:44:33;6.40;;;3.25;;
74963;SDS011;63521;51.900;4.748;2023-04-16T08:46:58;4.72;;;3.03;;
74963;SDS011;63521;51.900;4.748;2023-04-16T08:49:27;5.30;;;3.05;;
74963;SDS011;63521;51.900;4.748;2023-04-16T08:51:54;5.60;;;2.97;;
74963;SDS011;63521;51.900;4.748;2023-04-16T08:54:42;5.13;;;3.33;;
74963;SDS011;63521;51.900;4.748;2023-04-16T08:57:13;6.22;;;3.58;;
74963;SDS011;63521;51.900;4.748;2023-04-16T08:59:44;6.90;;;3.33;;
74963;SDS011;63521;51.900;4.748;2023-04-16T09:02:10;6.25;;;3.30;;
74963;SDS011;63521;51.900;4.748;2023-04-16T09:04:37;5.30;;;3.30;;
74963;SDS011;63521;51.900;4.748;2023-04-16T09:07:02;6.18;;;3.20;;
74963;SDS011;63521;51.900;4.748;2023-04-16T09:09:29;4.55;;;2.90;;
74963;SDS011;63521;51.900;4.748;2023-04-16T09:11:55;5.53;;;2.88;;
74963;SDS011;63521;51.900;4.748;2023-04-16T09:14:20;6.45;;;2.95;;
74963;SDS011;63521;51.900;4.748;2023-04-16T09:16:46;6.53;;;3.13;;
74963;SDS011;63521;51.900;4.748;2023-04-16T09:19:15;6.35;;;3.05;;
74963;SDS011;63521;51.900;4.748;2023-04-16T09:21:41;7.18;;;3.13;;
74963;SDS011;63521;51.900;4.748;2023-04-16T09:24:07;6.05;;;3.10;;
74963;SDS011;63521;51.900;4.748;2023-04-16T09:26:34;5.25;;;3.00;;
74963;SDS011;63521;51.900;4.748;2023-04-16T09:29:00;6.03;;;3.22;;
74963;SDS011;63521;51.900;4.748;2023-04-16T09:31:25;4.57;;;2.67;;
74963;SDS011;63521;51.900;4.748;2023-04-16T09:34:02;6.70;;;3.47;;
74963;SDS011;63521;51.900;4.748;2023-04-16T09:36:36;6.38;;;2.90;;
74963;SDS011;63521;51.900;4.748;2023-04-16T09:39:02;6.28;;;3.05;;
74963;SDS011;63521;51.900;4.748;2023-04-16T09:41:28;5.28;;;2.80;;
74963;SDS011;63521;51.900;4.748;2023-04-16T09:44:00;5.22;;;2.65;;
74963;SDS011;63521;51.900;4.748;2023-04-16T09:46:29;5.70;;;3.28;;
74963;SDS011;63521;51.900;4.748;2023-04-16T09:48:55;6.22;;;3.08;;
74963;SDS011;63521;51.900;4.748;2023-04-16T09:51:20;6.85;;;3.00;;
74963;SDS011;63521;51.900;4.748;2023-04-16T09:53:45;5.45;;;2.80;;
74963;SDS011;63521;51.900;4.748;2023-04-16T09:56:11;4.55;;;3.10;;
74963;SDS011;63521;51.900;4.748;2023-04-16T09:58:37;8.50;;;3.13;;
74963;SDS011;63521;51.900;4.748;2023-04-16T10:03:32;5.43;;;2.83;;
74963;SDS011;63521;51.900;4.748;2023-04-16T10:06:06;6.32;;;3.03;;
74963;SDS011;63521;51.900;4.748;2023-04-16T10:08:33;6.78;;;2.97;;
74963;SDS011;63521;51.900;4.748;2023-04-16T10:10:59;5.03;;;2.92;;
74963;SDS011;63521;51.900;4.748;2023-04-16T10:13:25;5.88;;;2.65;;
74963;SDS011;63521;51.900;4.748;2023-04-16T10:15:55;4.78;;;2.60;;
74963;SDS011;63521;51.900;4.748;2023-04-16T10:18:21;5.32;;;2.97;;
74963;SDS011;63521;51.900;4.748;2023-04-16T10:20:47;6.03;;;2.72;;
74963;SDS011;63521;51.900;4.748;2023-04-16T10:23:13;5.97;;;2.70;;
74963;SDS011;63521;51.900;4.748;2023-04-16T10:25:39;4.50;;;2.70;;
74963;SDS011;63521;51.900;4.748;2023-04-16T10:28:07;4.75;;;2.90;;
74963;SDS011;63521;51.900;4.748;2023-04-16T10:30:33;5.78;;;3.05;;
74963;SDS011;63521;51.900;4.748;2023-04-16T10:33:00;6.00;;;2.65;;
74963;SDS011;63521;51.900;4.748;2023-04-16T10:35:28;4.47;;;2.67;;
74963;SDS011;63521;51.900;4.748;2023-04-16T10:38:15;7.63;;;2.80;;
74963;SDS011;63521;51.900;4.748;2023-04-16T10:40:49;5.28;;;3.10;;
74963;SDS011;63521;51.900;4.748;2023-04-16T10:43:17;6.30;;;3.30;;
74963;SDS011;63521;51.900;4.748;2023-04-16T10:45:46;5.97;;;2.97;;
74963;SDS011;63521;51.900;4.748;2023-04-16T10:48:12;5.18;;;2.67;;
74963;SDS011;63521;51.900;4.748;2023-04-16T10:50:41;6.65;;;3.30;;
74963;SDS011;63521;51.900;4.748;2023-04-16T10:53:19;6.30;;;2.58;;
74963;SDS011;63521;51.900;4.748;2023-04-16T10:58:29;6.63;;;3.05;;
74963;SDS011;63521;51.900;4.748;2023-04-16T11:00:57;6.07;;;3.10;;
74963;SDS011;63521;51.900;4.748;2023-04-16T11:03:24;4.82;;;2.55;;
74963;SDS011;63521;51.900;4.748;2023-04-16T11:05:49;5.35;;;2.83;;
74963;SDS011;63521;51.900;4.748;2023-04-16T11:08:15;5.18;;;2.85;;
74963;SDS011;63521;51.900;4.748;2023-04-16T11:10:41;4.57;;;2.42;;
74963;SDS011;63521;51.900;4.748;2023-04-16T11:13:06;4.47;;;2.85;;
74963;SDS011;63521;51.900;4.748;2023-04-16T11:15:33;6.75;;;3.13;;
74963;SDS011;63521;51.900;4.748;2023-04-16T11:17:59;5.72;;;2.75;;
74963;SDS011;63521;51.900;4.748;2023-04-16T11:20:25;7.03;;;3.13;;
74963;SDS011;63521;51.900;4.748;2023-04-16T11:22:52;5.22;;;3.40;;
74963;SDS011;63521;51.900;4.748;2023-04-16T11:25:19;5.57;;;3.35;;
74963;SDS011;63521;51.900;4.748;2023-04-16T11:27:48;5.00;;;3.22;;
74963;SDS011;63521;51.900;4.748;2023-04-16T11:30:15;7.72;;;3.30;;
74963;SDS011;63521;51.900;4.748;2023-04-16T11:32:41;6.18;;;3.28;;
74963;SDS011;63521;51.900;4.748;2023-04-16T11:35:15;5.53;;;3.22;;
74963;SDS011;63521;51.900;4.748;2023-04-16T11:37:44;6.03;;;3.08;;
74963;SDS011;63521;51.900;4.748;2023-04-16T11:40:12;6.53;;;3.00;;
74963;SDS011;63521;51.900;4.748;2023-04-16T11:42:39;5.03;;;3.33;;
74963;SDS011;63521;51.900;4.748;2023-04-16T11:45:06;5.70;;;3.20;;
74963;SDS011;63521;51.900;4.748;2023-04-16T11:47:41;5.10;;;3.00;;
74963;SDS011;63521;51.900;4.748;2023-04-16T11:50:21;5.97;;;3.53;;
74963;SDS011;63521;51.900;4.748;2023-04-16T11:52:48;6.47;;;3.50;;
74963;SDS011;63521;51.900;4.748;2023-04-16T11:55:14;6.20;;;3.42;;
74963;SDS011;63521;51.900;4.748;2023-04-16T11:57:40;6.57;;;3.50;;
74963;SDS011;63521;51.900;4.748;2023-04-16T12:00:05;5.40;;;3.25;;
74963;SDS011;63521;51.900;4.748;2023-04-16T12:02:39;6.05;;;3.60;;
74963;SDS011;63521;51.900;4.748;2023-04-16T12:05:35;5.88;;;3.58;;
74963;SDS011;63521;51.900;4.748;2023-04-16T12:08:04;7.10;;;4.00;;
74963;SDS011;63521;51.900;4.748;2023-04-16T12:10:32;6.15;;;3.78;;
74963;SDS011;63521;51.900;4.748;2023-04-16T12:13:14;8.23;;;3.97;;
74963;SDS011;63521;51.900;4.748;2023-04-16T12:15:47;7.85;;;3.95;;
74963;SDS011;63521;51.900;4.748;2023-04-16T12:18:14;8.10;;;4.15;;
74963;SDS011;63521;51.900;4.748;2023-04-16T12:20:44;7.38;;;4.13;;
74963;SDS011;63521;51.900;4.748;2023-04-16T12:23:26;6.05;;;4.05;;
74963;SDS011;63521;51.900;4.748;2023-04-16T12:28:33;5.10;;;3.28;;
74963;SDS011;63521;51.900;4.748;2023-04-16T12:31:02;6.80;;;3.78;;
74963;SDS011;63521;51.900;4.748;2023-04-16T12:33:28;6.40;;;3.45;;
74963;SDS011;63521;51.900;4.748;2023-04-16T12:35:54;8.85;;;3.90;;
74963;SDS011;63521;51.900;4.748;2023-04-16T12:38:19;5.93;;;3.67;;
74963;SDS011;63521;51.900;4.748;2023-04-16T12:40:45;7.25;;;3.90;;
74963;SDS011;63521;51.900;4.748;2023-04-16T12:43:11;8.23;;;4.03;;
74963;SDS011;63521;51.900;4.748;2023-04-16T12:45:43;6.25;;;4.00;;
74963;SDS011;63521;51.900;4.748;2023-04-16T12:48:25;7.43;;;3.78;;
74963;SDS011;63521;51.900;4.748;2023-04-16T12:50:52;7.38;;;3.97;;
74963;SDS011;63521;51.900;4.748;2023-04-16T12:53:17;7.38;;;4.05;;
74963;SDS011;63521;51.900;4.748;2023-04-16T12:55:43;8.15;;;3.92;;
74963;SDS011;63521;51.900;4.748;2023-04-16T12:58:09;6.60;;;4.53;;
74963;SDS011;63521;51.900;4.748;2023-04-16T13:00:35;6.63;;;4.07;;
74963;SDS011;63521;51.900;4.748;2023-04-16T13:03:00;6.45;;;4.03;;
74963;SDS011;63521;51.900;4.748;2023-04-16T13:05:25;7.57;;;4.10;;
74963;SDS011;63521;51.900;4.748;2023-04-16T13:07:51;8.13;;;4.50;;
74963;SDS011;63521;51.900;4.748;2023-04-16T13:10:16;7.70;;;4.25;;
74963;SDS011;63521;51.900;4.748;2023-04-16T13:12:42;8.90;;;5.07;;
74963;SDS011;63521;51.900;4.748;2023-04-16T13:15:10;7.15;;;4.32;;
74963;SDS011;63521;51.900;4.748;2023-04-16T13:17:36;7.90;;;4.13;;
74963;SDS011;63521;51.900;4.748;2023-04-16T13:20:01;7.20;;;4.13;;
74963;SDS011;63521;51.900;4.748;2023-04-16T13:22:27;6.60;;;4.32;;
74963;SDS011;63521;51.900;4.748;2023-04-16T13:24:52;8.35;;;4.32;;
74963;SDS011;63521;51.900;4.748;2023-04-16T13:27:18;8.57;;;5.50;;
74963;SDS011;63521;51.900;4.748;2023-04-16T13:29:44;7.72;;;4.60;;
74963;SDS011;63521;51.900;4.748;2023-04-16T13:32:09;8.05;;;4.88;;
74963;SDS011;63521;51.900;4.748;2023-04-16T13:34:37;8.18;;;4.40;;
74963;SDS011;63521;51.900;4.748;2023-04-16T13:37:03;8.57;;;4.63;;
74963;SDS011;63521;51.900;4.748;2023-04-16T13:39:28;8.20;;;4.80;;
74963;SDS011;63521;51.900;4.748;2023-04-16T13:41:54;9.85;;;4.82;;
74963;SDS011;63521;51.900;4.748;2023-04-16T13:44:19;8.30;;;4.68;;
74963;SDS011;63521;51.900;4.748;2023-04-16T13:46:45;7.25;;;4.13;;
74963;SDS011;63521;51.900;4.748;2023-04-16T13:49:13;6.93;;;3.92;;
74963;SDS011;63521;51.900;4.748;2023-04-16T13:51:41;8.43;;;5.07;;
74963;SDS011;63521;51.900;4.748;2023-04-16T13:54:10;7.35;;;4.65;;
74963;SDS011;63521;51.900;4.748;2023-04-16T13:56:35;7.32;;;4.82;;
74963;SDS011;63521;51.900;4.748;2023-04-16T13:59:01;6.93;;;4.47;;
74963;SDS011;63521;51.900;4.748;2023-04-16T14:01:26;7.65;;;4.28;;
74963;SDS011;63521;51.900;4.748;2023-04-16T14:03:52;7.38;;;4.32;;
74963;SDS011;63521;51.900;4.748;2023-04-16T14:06:18;6.63;;;4.63;;
74963;SDS011;63521;51.900;4.748;2023-04-16T14:08:43;7.20;;;4.32;;
74963;SDS011;63521;51.900;4.748;2023-04-16T14:11:09;8.82;;;4.55;;
74963;SDS011;63521;51.900;4.748;2023-04-16T14:13:35;9.48;;;4.57;;
74963;SDS011;63521;51.900;4.748;2023-04-16T14:16:01;8.30;;;5.05;;
74963;SDS011;63521;51.900;4.748;2023-04-16T14:18:27;8.20;;;5.18;;
74963;SDS011;63521;51.900;4.748;2023-04-16T14:20:52;7.70;;;4.75;;
74963;SDS011;63521;51.900;4.748;2023-04-16T14:23:17;10.13;;;4.63;;
74963;SDS011;63521;51.900;4.748;2023-04-16T14:25:43;7.30;;;4.43;;
74963;SDS011;63521;51.900;4.748;2023-04-16T14:28:08;6.78;;;4.55;;
74963;SDS011;63521;51.900;4.748;2023-04-16T14:30:34;6.88;;;4.40;;
74963;SDS011;63521;51.900;4.748;2023-04-16T14:33:00;8.52;;;4.47;;
74963;SDS011;63521;51.900;4.748;2023-04-16T14:35:25;7.35;;;4.85;;
74963;SDS011;63521;51.900;4.748;2023-04-16T14:37:51;7.38;;;5.13;;
74963;SDS011;63521;51.900;4.748;2023-04-16T14:40:16;9.07;;;4.70;;
74963;SDS011;63521;51.900;4.748;2023-04-16T14:42:42;9.25;;;5.20;;
74963;SDS011;63521;51.900;4.748;2023-04-16T14:45:08;8.02;;;4.68;;
74963;SDS011;63521;51.900;4.748;2023-04-16T14:47:34;8.07;;;4.55;;
74963;SDS011;63521;51.900;4.748;2023-04-16T14:50:01;6.82;;;4.60;;
74963;SDS011;63521;51.900;4.748;2023-04-16T14:52:27;7.90;;;4.75;;
74963;SDS011;63521;51.900;4.748;2023-04-16T14:54:53;7.07;;;4.60;;
74963;SDS011;63521;51.900;4.748;2023-04-16T14:57:19;6.95;;;4.53;;
74963;SDS011;63521;51.900;4.748;2023-04-16T14:59:45;8.18;;;4.97;;
74963;SDS011;63521;51.900;4.748;2023-04-16T15:02:10;6.82;;;4.50;;
74963;SDS011;63521;51.900;4.748;2023-04-16T15:04:36;9.93;;;5.07;;
74963;SDS011;63521;51.900;4.748;2023-04-16T15:07:01;7.25;;;4.80;;